Rechercher aéroport 
image banner adimage banner ad
image banner ad

SDJZ - Fazenda Barra do Agudo Airport

Situé à Morro Agudo, Brazil

ICAO - SDJZ, IATA -

Données fournies par Airmate  

Information générale

Coordonnées: S29°56'56" W54°8'50"
Élévation : 344 feet MSL.
Variation magnétique : -15° East
Voir autres Aéroports à Rio Grande do Sul

Données opérationnelles

Accessible au public
Heure actuelle UTC:
Heure actuelle locale:
Météo à : SBSM - Santa Maria Airport ( 51 km )
METAR: SBSM 301500Z 08005KT 040V100 CAVOK 25/22 Q1008
TAF: TAF SBSM 300900Z 3012/3024 10010KT 9999 TSRA SCT030 FEW040CB TN20/3012Z TX24/3018Z BECMG 3014/3016 CAVOK RMK PED
Voir NOTAMs / SUP AIP / TFR affectant cet aéroport [VIEW]
Fréquences de communication: [VIEW]

Pistes:

Identifiant RWYQFULongueur (ft)Largeur (ft)SurfaceLDA (ft)
02262165GRASS
20262165GRASS

Coordonnées de l'aéroport

Adresse: Morro Agudo Brazil

Vue satellite de SDJZ